Portada
METAR-TAF:

METAR-TAF

Aeroports :

Aeroport d'Ouagadougou

Ouagadougou, Burkina Faso

latitud: 12-21N, longitud: 001-31W, altitud: 316 m

Observació

L'informe es va fer fa 59 minuts, a les 23:00 UTC
Vent 3 kt del Nord/Nord-Oest
Temperatura 26°C
Humitat 42%
Pressió 1012 hPa
Visibilitat: 8000 m

METAR: DFFD 192300Z 33003KT 8000 NSC 26/12 Q1012 NOSIG

Hora: 23:59 (23:59 UTC)

Pronòstic

L'informe es va fer fa 59 minuts, a les 23:00 UTC
Pronòstic vàlid del 20 a les 00 UTC al 21 a les 06 UTC
Vent 8 kt del Nord/Nord-Est
Visibilitat: 8000 m
Temporalment
l' 20 a les 06 UTC al 20 a les 10 UTC
Visibilitat: 2500 m
calitja
Temporalment
l' 20 a les 17 UTC al 20 a les 21 UTC
Visibilitat: 4000 m
calitja

TAF: DFFD 192300Z 2000/2106 03008KT 8000 NSC TEMPO 2006/2010 2500 HZ TEMPO 2017/2021 4000 HZ

Observacions i pronòstics meteorològics de més de 4000 aeroports (METAR i TAF).

Les estacions disponibles són els punts grocs i vermells al mapa.

Posi el ratolí al punt desitjat per veure el nom de l'estació.

Feu clic per veure les observacions i els pronòstics meteorològics.

Per canviar el mapa: feu clic els botons verds amb una creu de color negre per apropar; al botó verd amb un guió per allunyar la imatge; o en les fletxes verdes per a mapes adjacents.


METAR-TAF: